sensor_id;sensor_type;location;lat;lon;timestamp;P1;durP1;ratioP1;P2;durP2;ratioP2
59167;SDS011;70412;55.048;73.268;2023-08-07T00:02:59;3.97;;;2.28;;
59167;SDS011;70412;55.048;73.268;2023-08-07T00:06:01;8.55;;;2.30;;
59167;SDS011;70412;55.048;73.268;2023-08-07T00:09:04;6.70;;;2.60;;
59167;SDS011;70412;55.048;73.268;2023-08-07T00:12:06;4.25;;;2.45;;
59167;SDS011;70412;55.048;73.268;2023-08-07T00:15:10;6.75;;;2.30;;
59167;SDS011;70412;55.048;73.268;2023-08-07T00:18:13;4.93;;;2.45;;
59167;SDS011;70412;55.048;73.268;2023-08-07T00:21:15;6.60;;;1.90;;
59167;SDS011;70412;55.048;73.268;2023-08-07T00:24:18;9.80;;;2.20;;
59167;SDS011;70412;55.048;73.268;2023-08-07T00:27:21;4.88;;;2.10;;
59167;SDS011;70412;55.048;73.268;2023-08-07T00:30:23;4.07;;;2.03;;
59167;SDS011;70412;55.048;73.268;2023-08-07T00:33:26;6.20;;;2.42;;
59167;SDS011;70412;55.048;73.268;2023-08-07T00:36:28;6.05;;;2.42;;
59167;SDS011;70412;55.048;73.268;2023-08-07T00:39:33;8.48;;;2.42;;
59167;SDS011;70412;55.048;73.268;2023-08-07T00:42:35;7.20;;;2.20;;
59167;SDS011;70412;55.048;73.268;2023-08-07T00:45:41;6.28;;;2.63;;
59167;SDS011;70412;55.048;73.268;2023-08-07T00:48:46;4.85;;;2.40;;
59167;SDS011;70412;55.048;73.268;2023-08-07T00:51:51;5.47;;;2.40;;
59167;SDS011;70412;55.048;73.268;2023-08-07T00:54:54;6.95;;;1.92;;
59167;SDS011;70412;55.048;73.268;2023-08-07T00:57:58;4.03;;;2.13;;
59167;SDS011;70412;55.048;73.268;2023-08-07T01:01:02;65.72;;;6.43;;
59167;SDS011;70412;55.048;73.268;2023-08-07T01:04:04;74.85;;;8.30;;
59167;SDS011;70412;55.048;73.268;2023-08-07T01:07:07;45.22;;;4.80;;
59167;SDS011;70412;55.048;73.268;2023-08-07T01:10:09;37.58;;;4.50;;
59167;SDS011;70412;55.048;73.268;2023-08-07T01:13:34;68.05;;;6.38;;
59167;SDS011;70412;55.048;73.268;2023-08-07T01:16:44;26.60;;;4.15;;
59167;SDS011;70412;55.048;73.268;2023-08-07T01:20:02;25.75;;;4.32;;
59167;SDS011;70412;55.048;73.268;2023-08-07T01:23:06;14.20;;;2.78;;
59167;SDS011;70412;55.048;73.268;2023-08-07T01:26:08;62.13;;;6.40;;
59167;SDS011;70412;55.048;73.268;2023-08-07T01:29:15;26.45;;;3.42;;
59167;SDS011;70412;55.048;73.268;2023-08-07T01:32:28;16.07;;;3.43;;
59167;SDS011;70412;55.048;73.268;2023-08-07T01:35:53;10.57;;;2.72;;
59167;SDS011;70412;55.048;73.268;2023-08-07T01:38:57;8.90;;;3.55;;
59167;SDS011;70412;55.048;73.268;2023-08-07T01:42:02;13.75;;;3.65;;
59167;SDS011;70412;55.048;73.268;2023-08-07T01:45:06;6.20;;;2.88;;
59167;SDS011;70412;55.048;73.268;2023-08-07T01:48:09;14.60;;;2.95;;
59167;SDS011;70412;55.048;73.268;2023-08-07T01:51:14;11.38;;;2.60;;
59167;SDS011;70412;55.048;73.268;2023-08-07T01:54:17;7.25;;;2.42;;
59167;SDS011;70412;55.048;73.268;2023-08-07T01:57:19;8.40;;;2.80;;
59167;SDS011;70412;55.048;73.268;2023-08-07T02:00:23;15.05;;;2.53;;
59167;SDS011;70412;55.048;73.268;2023-08-07T02:03:26;6.57;;;2.35;;
59167;SDS011;70412;55.048;73.268;2023-08-07T02:06:28;14.15;;;3.15;;
59167;SDS011;70412;55.048;73.268;2023-08-07T02:09:31;8.18;;;3.03;;
59167;SDS011;70412;55.048;73.268;2023-08-07T02:12:33;9.68;;;2.50;;
59167;SDS011;70412;55.048;73.268;2023-08-07T02:15:36;10.23;;;2.97;;
59167;SDS011;70412;55.048;73.268;2023-08-07T02:18:44;8.85;;;2.90;;
59167;SDS011;70412;55.048;73.268;2023-08-07T02:21:47;9.55;;;2.85;;
59167;SDS011;70412;55.048;73.268;2023-08-07T02:24:50;8.10;;;2.13;;
59167;SDS011;70412;55.048;73.268;2023-08-07T02:27:53;7.53;;;2.45;;
59167;SDS011;70412;55.048;73.268;2023-08-07T02:30:55;15.38;;;2.55;;
59167;SDS011;70412;55.048;73.268;2023-08-07T02:33:58;5.70;;;2.33;;
59167;SDS011;70412;55.048;73.268;2023-08-07T02:37:01;15.82;;;3.17;;
59167;SDS011;70412;55.048;73.268;2023-08-07T02:40:03;6.32;;;2.83;;
59167;SDS011;70412;55.048;73.268;2023-08-07T02:43:06;10.73;;;2.45;;
59167;SDS011;70412;55.048;73.268;2023-08-07T02:46:11;13.57;;;3.03;;
59167;SDS011;70412;55.048;73.268;2023-08-07T02:49:15;4.85;;;2.60;;
59167;SDS011;70412;55.048;73.268;2023-08-07T02:52:18;10.90;;;2.58;;
59167;SDS011;70412;55.048;73.268;2023-08-07T02:55:20;6.53;;;2.67;;
59167;SDS011;70412;55.048;73.268;2023-08-07T02:58:23;7.13;;;2.50;;
59167;SDS011;70412;55.048;73.268;2023-08-07T03:01:25;9.45;;;3.13;;
59167;SDS011;70412;55.048;73.268;2023-08-07T03:04:29;10.20;;;2.58;;
59167;SDS011;70412;55.048;73.268;2023-08-07T03:07:31;7.70;;;2.40;;
59167;SDS011;70412;55.048;73.268;2023-08-07T03:10:34;10.05;;;2.90;;
59167;SDS011;70412;55.048;73.268;2023-08-07T03:13:37;7.63;;;2.90;;
59167;SDS011;70412;55.048;73.268;2023-08-07T03:16:40;8.90;;;2.78;;
59167;SDS011;70412;55.048;73.268;2023-08-07T03:19:42;7.00;;;2.80;;
59167;SDS011;70412;55.048;73.268;2023-08-07T03:22:47;8.70;;;4.57;;
59167;SDS011;70412;55.048;73.268;2023-08-07T03:25:50;7.97;;;2.92;;
59167;SDS011;70412;55.048;73.268;2023-08-07T03:29:03;8.40;;;4.10;;
59167;SDS011;70412;55.048;73.268;2023-08-07T03:32:06;7.03;;;3.22;;
59167;SDS011;70412;55.048;73.268;2023-08-07T03:35:10;10.13;;;4.30;;
59167;SDS011;70412;55.048;73.268;2023-08-07T03:38:13;4.60;;;2.72;;
59167;SDS011;70412;55.048;73.268;2023-08-07T03:41:16;7.15;;;2.83;;
59167;SDS011;70412;55.048;73.268;2023-08-07T03:44:19;6.45;;;2.58;;
59167;SDS011;70412;55.048;73.268;2023-08-07T03:47:21;5.22;;;2.75;;
59167;SDS011;70412;55.048;73.268;2023-08-07T03:50:24;6.40;;;2.83;;
59167;SDS011;70412;55.048;73.268;2023-08-07T03:53:27;7.00;;;2.58;;
59167;SDS011;70412;55.048;73.268;2023-08-07T03:56:30;7.38;;;2.42;;
59167;SDS011;70412;55.048;73.268;2023-08-07T03:59:38;5.13;;;2.85;;
59167;SDS011;70412;55.048;73.268;2023-08-07T04:02:41;8.13;;;3.00;;
59167;SDS011;70412;55.048;73.268;2023-08-07T04:05:46;6.27;;;3.03;;
59167;SDS011;70412;55.048;73.268;2023-08-07T04:08:48;5.43;;;2.55;;
59167;SDS011;70412;55.048;73.268;2023-08-07T04:11:51;5.07;;;3.10;;
59167;SDS011;70412;55.048;73.268;2023-08-07T04:14:53;7.25;;;3.42;;
59167;SDS011;70412;55.048;73.268;2023-08-07T04:17:56;6.43;;;2.85;;
59167;SDS011;70412;55.048;73.268;2023-08-07T04:20:59;6.28;;;3.13;;
59167;SDS011;70412;55.048;73.268;2023-08-07T04:24:02;7.65;;;3.45;;
59167;SDS011;70412;55.048;73.268;2023-08-07T04:27:11;10.95;;;4.50;;
59167;SDS011;70412;55.048;73.268;2023-08-07T04:30:14;7.55;;;4.93;;
59167;SDS011;70412;55.048;73.268;2023-08-07T04:33:16;7.32;;;3.13;;
59167;SDS011;70412;55.048;73.268;2023-08-07T04:36:19;7.88;;;3.47;;
59167;SDS011;70412;55.048;73.268;2023-08-07T04:39:23;7.18;;;3.08;;
59167;SDS011;70412;55.048;73.268;2023-08-07T04:42:26;7.38;;;3.63;;
59167;SDS011;70412;55.048;73.268;2023-08-07T04:45:28;4.65;;;3.22;;
59167;SDS011;70412;55.048;73.268;2023-08-07T04:48:31;8.57;;;3.75;;
59167;SDS011;70412;55.048;73.268;2023-08-07T04:51:35;8.02;;;3.35;;
59167;SDS011;70412;55.048;73.268;2023-08-07T04:54:38;5.97;;;3.40;;
59167;SDS011;70412;55.048;73.268;2023-08-07T04:57:40;6.43;;;3.33;;
59167;SDS011;70412;55.048;73.268;2023-08-07T05:00:43;9.75;;;3.58;;
59167;SDS011;70412;55.048;73.268;2023-08-07T05:03:46;10.80;;;3.77;;
59167;SDS011;70412;55.048;73.268;2023-08-07T05:06:48;5.65;;;3.13;;
59167;SDS011;70412;55.048;73.268;2023-08-07T05:09:51;6.75;;;3.75;;
59167;SDS011;70412;55.048;73.268;2023-08-07T05:12:55;10.23;;;3.17;;
59167;SDS011;70412;55.048;73.268;2023-08-07T05:15:57;9.35;;;3.50;;
59167;SDS011;70412;55.048;73.268;2023-08-07T05:19:00;9.57;;;3.65;;
59167;SDS011;70412;55.048;73.268;2023-08-07T05:22:02;5.15;;;3.10;;
59167;SDS011;70412;55.048;73.268;2023-08-07T05:25:05;8.13;;;3.58;;
59167;SDS011;70412;55.048;73.268;2023-08-07T05:28:08;7.20;;;3.28;;
59167;SDS011;70412;55.048;73.268;2023-08-07T05:31:11;12.07;;;3.70;;
59167;SDS011;70412;55.048;73.268;2023-08-07T05:34:13;7.60;;;3.38;;
59167;SDS011;70412;55.048;73.268;2023-08-07T05:37:16;9.07;;;3.67;;
59167;SDS011;70412;55.048;73.268;2023-08-07T05:40:18;5.13;;;2.90;;
59167;SDS011;70412;55.048;73.268;2023-08-07T05:43:20;8.65;;;3.45;;
59167;SDS011;70412;55.048;73.268;2023-08-07T05:46:23;11.88;;;3.45;;
59167;SDS011;70412;55.048;73.268;2023-08-07T05:49:25;7.65;;;3.13;;
59167;SDS011;70412;55.048;73.268;2023-08-07T05:52:28;10.80;;;3.90;;
59167;SDS011;70412;55.048;73.268;2023-08-07T05:55:31;7.80;;;3.50;;
59167;SDS011;70412;55.048;73.268;2023-08-07T05:58:35;5.30;;;3.08;;
59167;SDS011;70412;55.048;73.268;2023-08-07T06:01:37;8.40;;;3.00;;
59167;SDS011;70412;55.048;73.268;2023-08-07T06:04:40;9.90;;;3.20;;
59167;SDS011;70412;55.048;73.268;2023-08-07T06:07:42;8.45;;;3.40;;
59167;SDS011;70412;55.048;73.268;2023-08-07T06:10:45;8.27;;;4.05;;
59167;SDS011;70412;55.048;73.268;2023-08-07T06:13:48;11.75;;;3.95;;
59167;SDS011;70412;55.048;73.268;2023-08-07T06:16:51;6.60;;;3.55;;
59167;SDS011;70412;55.048;73.268;2023-08-07T06:19:54;5.97;;;2.90;;
59167;SDS011;70412;55.048;73.268;2023-08-07T06:22:56;13.05;;;3.08;;
59167;SDS011;70412;55.048;73.268;2023-08-07T06:25:59;5.10;;;3.20;;
59167;SDS011;70412;55.048;73.268;2023-08-07T06:29:05;5.65;;;3.00;;
59167;SDS011;70412;55.048;73.268;2023-08-07T06:32:08;5.07;;;2.75;;
59167;SDS011;70412;55.048;73.268;2023-08-07T06:35:12;7.05;;;3.38;;
59167;SDS011;70412;55.048;73.268;2023-08-07T06:38:14;5.50;;;3.10;;
59167;SDS011;70412;55.048;73.268;2023-08-07T06:41:17;9.50;;;3.33;;
59167;SDS011;70412;55.048;73.268;2023-08-07T06:44:23;5.76;;;3.17;;
59167;SDS011;70412;55.048;73.268;2023-08-07T06:47:26;5.93;;;3.65;;
59167;SDS011;70412;55.048;73.268;2023-08-07T06:50:28;5.68;;;3.20;;
59167;SDS011;70412;55.048;73.268;2023-08-07T06:53:31;8.70;;;3.70;;
59167;SDS011;70412;55.048;73.268;2023-08-07T06:56:34;5.15;;;3.25;;
59167;SDS011;70412;55.048;73.268;2023-08-07T06:59:36;5.40;;;3.63;;
59167;SDS011;70412;55.048;73.268;2023-08-07T07:02:40;6.75;;;3.70;;
59167;SDS011;70412;55.048;73.268;2023-08-07T07:05:42;7.05;;;3.67;;
59167;SDS011;70412;55.048;73.268;2023-08-07T07:08:45;6.05;;;3.67;;
59167;SDS011;70412;55.048;73.268;2023-08-07T07:11:48;6.07;;;3.20;;
59167;SDS011;70412;55.048;73.268;2023-08-07T07:14:50;9.90;;;3.65;;
59167;SDS011;70412;55.048;73.268;2023-08-07T07:17:53;5.00;;;3.20;;
59167;SDS011;70412;55.048;73.268;2023-08-07T07:20:59;5.03;;;3.38;;
59167;SDS011;70412;55.048;73.268;2023-08-07T07:24:02;8.00;;;4.95;;
59167;SDS011;70412;55.048;73.268;2023-08-07T07:27:05;13.48;;;3.97;;
59167;SDS011;70412;55.048;73.268;2023-08-07T07:30:08;8.13;;;3.10;;
59167;SDS011;70412;55.048;73.268;2023-08-07T07:33:11;5.80;;;3.40;;
59167;SDS011;70412;55.048;73.268;2023-08-07T07:36:17;9.57;;;3.47;;
59167;SDS011;70412;55.048;73.268;2023-08-07T07:39:23;6.55;;;3.30;;
59167;SDS011;70412;55.048;73.268;2023-08-07T07:42:25;8.65;;;3.70;;
59167;SDS011;70412;55.048;73.268;2023-08-07T07:45:28;4.35;;;3.00;;
59167;SDS011;70412;55.048;73.268;2023-08-07T07:48:30;5.88;;;3.08;;
59167;SDS011;70412;55.048;73.268;2023-08-07T07:51:33;4.22;;;2.50;;
59167;SDS011;70412;55.048;73.268;2023-08-07T07:54:37;5.03;;;2.92;;
59167;SDS011;70412;55.048;73.268;2023-08-07T07:57:42;6.07;;;3.70;;
59167;SDS011;70412;55.048;73.268;2023-08-07T08:00:44;4.25;;;2.90;;
59167;SDS011;70412;55.048;73.268;2023-08-07T08:03:47;8.82;;;3.50;;
59167;SDS011;70412;55.048;73.268;2023-08-07T08:06:49;5.82;;;3.50;;
59167;SDS011;70412;55.048;73.268;2023-08-07T08:09:52;5.40;;;3.38;;
59167;SDS011;70412;55.048;73.268;2023-08-07T08:12:55;6.35;;;3.90;;
59167;SDS011;70412;55.048;73.268;2023-08-07T08:15:58;12.30;;;4.00;;
59167;SDS011;70412;55.048;73.268;2023-08-07T08:19:00;5.90;;;3.42;;
59167;SDS011;70412;55.048;73.268;2023-08-07T08:22:04;5.50;;;3.30;;
59167;SDS011;70412;55.048;73.268;2023-08-07T08:25:07;6.13;;;3.28;;
59167;SDS011;70412;55.048;73.268;2023-08-07T08:28:11;7.47;;;3.50;;
59167;SDS011;70412;55.048;73.268;2023-08-07T08:31:14;7.18;;;3.33;;
59167;SDS011;70412;55.048;73.268;2023-08-07T08:34:17;14.18;;;4.30;;
59167;SDS011;70412;55.048;73.268;2023-08-07T08:37:19;10.45;;;4.07;;
59167;SDS011;70412;55.048;73.268;2023-08-07T08:40:22;7.00;;;3.88;;
59167;SDS011;70412;55.048;73.268;2023-08-07T08:43:26;10.48;;;3.90;;
59167;SDS011;70412;55.048;73.268;2023-08-07T08:46:29;9.38;;;4.00;;
59167;SDS011;70412;55.048;73.268;2023-08-07T08:49:35;6.78;;;3.75;;
59167;SDS011;70412;55.048;73.268;2023-08-07T08:52:41;5.47;;;3.30;;
59167;SDS011;70412;55.048;73.268;2023-08-07T08:55:46;6.47;;;3.27;;
59167;SDS011;70412;55.048;73.268;2023-08-07T08:58:52;5.93;;;3.13;;
59167;SDS011;70412;55.048;73.268;2023-08-07T09:01:55;6.50;;;3.40;;
59167;SDS011;70412;55.048;73.268;2023-08-07T09:04:58;6.53;;;3.90;;
59167;SDS011;70412;55.048;73.268;2023-08-07T09:08:01;9.27;;;3.83;;
59167;SDS011;70412;55.048;73.268;2023-08-07T09:11:04;6.43;;;3.60;;
59167;SDS011;70412;55.048;73.268;2023-08-07T09:14:09;8.45;;;3.45;;
59167;SDS011;70412;55.048;73.268;2023-08-07T09:17:14;6.82;;;3.40;;
59167;SDS011;70412;55.048;73.268;2023-08-07T09:20:18;5.55;;;3.53;;
59167;SDS011;70412;55.048;73.268;2023-08-07T09:23:21;10.07;;;3.35;;
59167;SDS011;70412;55.048;73.268;2023-08-07T09:26:23;8.93;;;4.00;;
59167;SDS011;70412;55.048;73.268;2023-08-07T09:29:29;9.50;;;3.83;;
59167;SDS011;70412;55.048;73.268;2023-08-07T09:32:31;11.75;;;4.47;;
59167;SDS011;70412;55.048;73.268;2023-08-07T09:35:34;8.10;;;4.00;;
59167;SDS011;70412;55.048;73.268;2023-08-07T09:38:36;6.05;;;3.38;;
59167;SDS011;70412;55.048;73.268;2023-08-07T09:41:39;8.45;;;3.40;;
59167;SDS011;70412;55.048;73.268;2023-08-07T09:44:42;6.93;;;2.97;;
59167;SDS011;70412;55.048;73.268;2023-08-07T09:48:23;6.95;;;3.30;;
59167;SDS011;70412;55.048;73.268;2023-08-07T09:51:25;6.78;;;3.10;;
59167;SDS011;70412;55.048;73.268;2023-08-07T09:54:28;4.82;;;3.30;;
59167;SDS011;70412;55.048;73.268;2023-08-07T09:57:33;7.10;;;3.40;;
59167;SDS011;70412;55.048;73.268;2023-08-07T10:00:39;6.78;;;4.20;;
59167;SDS011;70412;55.048;73.268;2023-08-07T10:03:42;7.15;;;3.40;;
59167;SDS011;70412;55.048;73.268;2023-08-07T10:06:45;9.88;;;3.75;;
59167;SDS011;70412;55.048;73.268;2023-08-07T10:09:48;7.78;;;3.65;;
59167;SDS011;70412;55.048;73.268;2023-08-07T10:12:52;14.70;;;4.13;;
59167;SDS011;70412;55.048;73.268;2023-08-07T10:15:56;8.35;;;3.08;;
59167;SDS011;70412;55.048;73.268;2023-08-07T10:22:02;9.43;;;3.50;;
59167;SDS011;70412;55.048;73.268;2023-08-07T10:25:06;15.68;;;4.05;;
59167;SDS011;70412;55.048;73.268;2023-08-07T10:28:10;14.43;;;4.28;;
59167;SDS011;70412;55.048;73.268;2023-08-07T10:31:17;18.30;;;4.53;;
59167;SDS011;70412;55.048;73.268;2023-08-07T10:34:21;7.80;;;3.10;;
59167;SDS011;70412;55.048;73.268;2023-08-07T10:44:04;9.88;;;3.90;;
59167;SDS011;70412;55.048;73.268;2023-08-07T10:47:10;9.43;;;4.57;;
59167;SDS011;70412;55.048;73.268;2023-08-07T10:50:12;9.55;;;3.65;;
59167;SDS011;70412;55.048;73.268;2023-08-07T10:53:28;7.25;;;2.88;;
59167;SDS011;70412;55.048;73.268;2023-08-07T10:56:35;8.05;;;3.15;;
59167;SDS011;70412;55.048;73.268;2023-08-07T10:59:49;6.40;;;2.97;;
59167;SDS011;70412;55.048;73.268;2023-08-07T11:02:52;8.00;;;3.03;;
59167;SDS011;70412;55.048;73.268;2023-08-07T11:05:57;8.18;;;3.25;;
59167;SDS011;70412;55.048;73.268;2023-08-07T11:09:01;7.38;;;3.45;;
59167;SDS011;70412;55.048;73.268;2023-08-07T11:12:06;6.35;;;2.92;;
59167;SDS011;70412;55.048;73.268;2023-08-07T11:15:14;10.57;;;3.38;;
59167;SDS011;70412;55.048;73.268;2023-08-07T11:18:16;6.97;;;3.30;;
59167;SDS011;70412;55.048;73.268;2023-08-07T11:21:20;3.47;;;2.80;;
59167;SDS011;70412;55.048;73.268;2023-08-07T11:24:23;7.90;;;3.17;;
59167;SDS011;70412;55.048;73.268;2023-08-07T11:27:30;4.65;;;2.97;;
59167;SDS011;70412;55.048;73.268;2023-08-07T11:30:32;7.80;;;3.00;;
59167;SDS011;70412;55.048;73.268;2023-08-07T11:33:40;5.47;;;3.30;;
59167;SDS011;70412;55.048;73.268;2023-08-07T11:36:46;8.32;;;3.95;;
59167;SDS011;70412;55.048;73.268;2023-08-07T11:40:01;8.70;;;3.53;;
59167;SDS011;70412;55.048;73.268;2023-08-07T11:43:24;6.50;;;3.28;;
59167;SDS011;70412;55.048;73.268;2023-08-07T11:46:28;10.57;;;3.88;;
59167;SDS011;70412;55.048;73.268;2023-08-07T11:49:31;8.95;;;3.70;;
59167;SDS011;70412;55.048;73.268;2023-08-07T11:52:34;7.88;;;3.08;;
59167;SDS011;70412;55.048;73.268;2023-08-07T11:55:36;5.50;;;2.83;;
59167;SDS011;70412;55.048;73.268;2023-08-07T11:58:42;4.15;;;2.63;;
59167;SDS011;70412;55.048;73.268;2023-08-07T12:01:49;8.98;;;3.60;;
59167;SDS011;70412;55.048;73.268;2023-08-07T12:04:57;5.88;;;2.92;;
59167;SDS011;70412;55.048;73.268;2023-08-07T12:08:00;6.40;;;3.30;;
59167;SDS011;70412;55.048;73.268;2023-08-07T12:11:13;4.38;;;2.97;;
59167;SDS011;70412;55.048;73.268;2023-08-07T12:14:15;11.48;;;3.38;;
59167;SDS011;70412;55.048;73.268;2023-08-07T12:17:19;10.75;;;3.60;;
59167;SDS011;70412;55.048;73.268;2023-08-07T12:20:23;8.70;;;4.00;;
59167;SDS011;70412;55.048;73.268;2023-08-07T12:23:26;14.07;;;3.58;;
59167;SDS011;70412;55.048;73.268;2023-08-07T12:26:29;8.40;;;4.10;;
59167;SDS011;70412;55.048;73.268;2023-08-07T12:29:31;11.07;;;3.33;;
59167;SDS011;70412;55.048;73.268;2023-08-07T12:32:34;9.00;;;3.30;;
59167;SDS011;70412;55.048;73.268;2023-08-07T12:35:39;10.00;;;3.50;;
59167;SDS011;70412;55.048;73.268;2023-08-07T12:38:42;6.27;;;3.60;;
59167;SDS011;70412;55.048;73.268;2023-08-07T12:41:45;8.13;;;3.60;;
59167;SDS011;70412;55.048;73.268;2023-08-07T12:44:50;6.18;;;3.55;;
59167;SDS011;70412;55.048;73.268;2023-08-07T12:47:52;9.98;;;4.85;;
59167;SDS011;70412;55.048;73.268;2023-08-07T12:50:54;6.82;;;3.80;;
59167;SDS011;70412;55.048;73.268;2023-08-07T12:53:57;11.18;;;3.97;;
59167;SDS011;70412;55.048;73.268;2023-08-07T12:56:59;10.50;;;3.83;;
59167;SDS011;70412;55.048;73.268;2023-08-07T13:00:02;8.77;;;4.18;;
59167;SDS011;70412;55.048;73.268;2023-08-07T13:03:06;13.37;;;3.77;;
59167;SDS011;70412;55.048;73.268;2023-08-07T13:06:09;11.98;;;4.10;;
59167;SDS011;70412;55.048;73.268;2023-08-07T13:09:13;8.37;;;3.77;;
59167;SDS011;70412;55.048;73.268;2023-08-07T13:12:16;9.70;;;4.13;;
59167;SDS011;70412;55.048;73.268;2023-08-07T13:15:19;8.50;;;3.75;;
59167;SDS011;70412;55.048;73.268;2023-08-07T13:18:22;8.80;;;3.30;;
59167;SDS011;70412;55.048;73.268;2023-08-07T13:21:24;6.18;;;3.20;;
59167;SDS011;70412;55.048;73.268;2023-08-07T13:24:27;8.45;;;3.40;;
59167;SDS011;70412;55.048;73.268;2023-08-07T13:27:32;13.52;;;3.65;;
59167;SDS011;70412;55.048;73.268;2023-08-07T13:30:35;13.73;;;4.15;;
59167;SDS011;70412;55.048;73.268;2023-08-07T13:33:38;18.75;;;4.15;;
59167;SDS011;70412;55.048;73.268;2023-08-07T13:36:40;5.65;;;3.00;;
59167;SDS011;70412;55.048;73.268;2023-08-07T13:39:45;10.68;;;3.42;;
59167;SDS011;70412;55.048;73.268;2023-08-07T13:42:50;11.13;;;3.75;;
59167;SDS011;70412;55.048;73.268;2023-08-07T13:45:54;24.02;;;5.75;;
59167;SDS011;70412;55.048;73.268;2023-08-07T13:48:57;15.00;;;3.38;;
59167;SDS011;70412;55.048;73.268;2023-08-07T13:52:00;14.75;;;3.85;;
59167;SDS011;70412;55.048;73.268;2023-08-07T13:55:03;13.32;;;3.60;;
59167;SDS011;70412;55.048;73.268;2023-08-07T13:58:05;8.13;;;2.83;;
59167;SDS011;70412;55.048;73.268;2023-08-07T14:01:09;15.97;;;4.30;;
59167;SDS011;70412;55.048;73.268;2023-08-07T14:04:12;13.70;;;4.03;;
59167;SDS011;70412;55.048;73.268;2023-08-07T14:07:17;20.38;;;4.57;;
59167;SDS011;70412;55.048;73.268;2023-08-07T14:10:19;19.13;;;4.22;;
59167;SDS011;70412;55.048;73.268;2023-08-07T14:13:21;12.48;;;4.20;;
59167;SDS011;70412;55.048;73.268;2023-08-07T14:16:24;41.63;;;5.43;;
59167;SDS011;70412;55.048;73.268;2023-08-07T14:19:27;15.30;;;5.50;;
59167;SDS011;70412;55.048;73.268;2023-08-07T14:22:30;36.03;;;7.45;;
59167;SDS011;70412;55.048;73.268;2023-08-07T14:25:33;36.10;;;6.30;;
59167;SDS011;70412;55.048;73.268;2023-08-07T14:28:39;34.97;;;5.20;;
59167;SDS011;70412;55.048;73.268;2023-08-07T14:31:41;28.13;;;5.40;;
59167;SDS011;70412;55.048;73.268;2023-08-07T14:34:44;22.23;;;5.07;;
59167;SDS011;70412;55.048;73.268;2023-08-07T14:37:49;24.70;;;6.22;;
59167;SDS011;70412;55.048;73.268;2023-08-07T14:40:51;36.80;;;7.05;;
59167;SDS011;70412;55.048;73.268;2023-08-07T14:43:54;32.72;;;6.60;;
59167;SDS011;70412;55.048;73.268;2023-08-07T14:46:56;36.38;;;7.50;;
59167;SDS011;70412;55.048;73.268;2023-08-07T14:49:59;31.08;;;6.82;;
59167;SDS011;70412;55.048;73.268;2023-08-07T14:53:01;51.67;;;9.57;;
59167;SDS011;70412;55.048;73.268;2023-08-07T14:56:04;28.45;;;9.27;;
59167;SDS011;70412;55.048;73.268;2023-08-07T14:59:09;29.90;;;8.85;;
59167;SDS011;70412;55.048;73.268;2023-08-07T15:02:12;30.85;;;8.32;;
59167;SDS011;70412;55.048;73.268;2023-08-07T15:05:15;32.10;;;8.70;;
59167;SDS011;70412;55.048;73.268;2023-08-07T15:08:18;32.67;;;9.70;;
59167;SDS011;70412;55.048;73.268;2023-08-07T15:11:20;26.88;;;9.07;;
59167;SDS011;70412;55.048;73.268;2023-08-07T15:14:22;30.50;;;9.82;;
59167;SDS011;70412;55.048;73.268;2023-08-07T15:17:25;38.20;;;9.88;;
59167;SDS011;70412;55.048;73.268;2023-08-07T15:20:27;34.65;;;10.18;;
59167;SDS011;70412;55.048;73.268;2023-08-07T15:23:30;57.70;;;16.05;;
59167;SDS011;70412;55.048;73.268;2023-08-07T15:26:32;69.63;;;22.27;;
59167;SDS011;70412;55.048;73.268;2023-08-07T15:29:34;100.43;;;26.83;;
59167;SDS011;70412;55.048;73.268;2023-08-07T15:32:37;118.82;;;28.88;;
59167;SDS011;70412;55.048;73.268;2023-08-07T15:35:42;105.28;;;30.08;;
59167;SDS011;70412;55.048;73.268;2023-08-07T15:41:50;91.05;;;25.38;;
59167;SDS011;70412;55.048;73.268;2023-08-07T15:44:52;63.55;;;19.67;;
59167;SDS011;70412;55.048;73.268;2023-08-07T15:47:55;51.40;;;18.23;;
59167;SDS011;70412;55.048;73.268;2023-08-07T15:50:57;60.38;;;18.65;;
59167;SDS011;70412;55.048;73.268;2023-08-07T15:54:00;56.35;;;22.02;;
59167;SDS011;70412;55.048;73.268;2023-08-07T15:57:03;59.80;;;19.33;;
59167;SDS011;70412;55.048;73.268;2023-08-07T16:00:09;60.65;;;17.13;;
59167;SDS011;70412;55.048;73.268;2023-08-07T16:03:15;49.53;;;14.73;;
59167;SDS011;70412;55.048;73.268;2023-08-07T16:06:19;43.17;;;15.35;;
59167;SDS011;70412;55.048;73.268;2023-08-07T16:09:21;55.28;;;14.20;;
59167;SDS011;70412;55.048;73.268;2023-08-07T16:12:23;42.55;;;14.02;;
59167;SDS011;70412;55.048;73.268;2023-08-07T16:15:26;53.58;;;16.05;;
59167;SDS011;70412;55.048;73.268;2023-08-07T16:18:29;50.83;;;13.68;;
59167;SDS011;70412;55.048;73.268;2023-08-07T16:21:31;45.95;;;13.40;;
59167;SDS011;70412;55.048;73.268;2023-08-07T16:24:34;46.85;;;13.98;;
59167;SDS011;70412;55.048;73.268;2023-08-07T16:27:37;47.70;;;13.20;;
59167;SDS011;70412;55.048;73.268;2023-08-07T16:30:40;38.05;;;13.57;;
59167;SDS011;70412;55.048;73.268;2023-08-07T16:33:43;44.85;;;14.30;;
59167;SDS011;70412;55.048;73.268;2023-08-07T16:36:45;56.80;;;13.30;;
59167;SDS011;70412;55.048;73.268;2023-08-07T16:39:47;50.10;;;13.85;;
59167;SDS011;70412;55.048;73.268;2023-08-07T16:42:50;36.63;;;13.57;;
59167;SDS011;70412;55.048;73.268;2023-08-07T16:46:00;42.72;;;13.88;;
59167;SDS011;70412;55.048;73.268;2023-08-07T16:49:03;58.03;;;13.82;;
59167;SDS011;70412;55.048;73.268;2023-08-07T16:52:05;44.00;;;12.55;;
59167;SDS011;70412;55.048;73.268;2023-08-07T16:55:08;31.65;;;11.93;;
59167;SDS011;70412;55.048;73.268;2023-08-07T16:58:11;39.70;;;12.77;;
59167;SDS011;70412;55.048;73.268;2023-08-07T17:01:13;40.92;;;11.15;;
59167;SDS011;70412;55.048;73.268;2023-08-07T17:04:15;48.42;;;11.80;;
59167;SDS011;70412;55.048;73.268;2023-08-07T17:07:18;37.88;;;11.52;;
59167;SDS011;70412;55.048;73.268;2023-08-07T17:10:20;51.83;;;12.07;;
59167;SDS011;70412;55.048;73.268;2023-08-07T17:13:25;35.40;;;11.38;;
59167;SDS011;70412;55.048;73.268;2023-08-07T17:16:28;40.55;;;12.35;;
59167;SDS011;70412;55.048;73.268;2023-08-07T17:19:30;29.65;;;10.85;;
59167;SDS011;70412;55.048;73.268;2023-08-07T17:22:35;32.58;;;10.98;;
59167;SDS011;70412;55.048;73.268;2023-08-07T17:25:38;29.75;;;10.52;;
59167;SDS011;70412;55.048;73.268;2023-08-07T17:28:41;33.85;;;10.23;;
59167;SDS011;70412;55.048;73.268;2023-08-07T17:31:43;44.25;;;11.70;;
59167;SDS011;70412;55.048;73.268;2023-08-07T17:34:45;47.30;;;13.77;;
59167;SDS011;70412;55.048;73.268;2023-08-07T17:37:54;51.38;;;15.35;;
59167;SDS011;70412;55.048;73.268;2023-08-07T17:40:59;42.38;;;13.75;;
59167;SDS011;70412;55.048;73.268;2023-08-07T17:44:06;30.70;;;13.02;;
59167;SDS011;70412;55.048;73.268;2023-08-07T17:47:13;42.13;;;13.73;;
59167;SDS011;70412;55.048;73.268;2023-08-07T17:50:19;33.97;;;12.40;;
59167;SDS011;70412;55.048;73.268;2023-08-07T17:53:25;45.35;;;13.63;;
59167;SDS011;70412;55.048;73.268;2023-08-07T17:56:30;35.42;;;12.48;;
59167;SDS011;70412;55.048;73.268;2023-08-07T17:59:37;29.08;;;11.77;;
59167;SDS011;70412;55.048;73.268;2023-08-07T18:02:42;26.27;;;11.83;;
59167;SDS011;70412;55.048;73.268;2023-08-07T18:05:50;23.08;;;11.00;;
59167;SDS011;70412;55.048;73.268;2023-08-07T18:08:57;31.75;;;12.73;;
59167;SDS011;70412;55.048;73.268;2023-08-07T18:12:03;28.17;;;12.38;;
59167;SDS011;70412;55.048;73.268;2023-08-07T18:15:10;27.77;;;13.80;;